Time,TemperatureF,DewpointF,PressureIn,WindDirection,WindDirectionDegrees,WindSpeedMPH,WindSpeedGustMPH,Humidity,HourlyPrecipIn,Conditions,Clouds,dailyrainin,SolarRadiationWatts/m^2,SoftwareType,DateUTC
2013-12-26 00:03:00,26.0,16.0,30.62,ENE,72,1.0,12.0,65,0.00,,,0.00,0.000000,,2013-12-26 05:03:00,
2013-12-26 00:43:00,27.0,15.0,30.61,ENE,66,2.0,5.0,61,0.00,,,0.00,0.000000,,2013-12-26 05:43:00,
2013-12-26 00:53:00,27.0,15.0,30.61,ENE,66,2.0,5.0,61,0.00,,,0.00,0.000000,,2013-12-26 05:53:00,
2013-12-26 01:02:00,27.0,15.0,30.61,ENE,66,2.0,5.0,61,0.00,,,0.00,0.000000,,2013-12-26 06:02:00,
2013-12-26 01:42:00,25.0,15.0,30.61,NNW,348,1.0,4.0,64,0.00,,,0.00,0.000000,,2013-12-26 06:42:00,
2013-12-26 01:52:00,25.0,15.0,30.61,NNW,348,1.0,4.0,64,0.00,,,0.00,0.000000,,2013-12-26 06:52:00,
2013-12-26 02:01:00,25.0,15.0,30.61,NNW,348,1.0,4.0,64,0.00,,,0.00,0.000000,,2013-12-26 07:01:00,
2013-12-26 02:42:00,22.0,16.0,30.61,North,351,1.0,3.0,77,0.00,,,0.00,0.000000,,2013-12-26 07:42:00,
2013-12-26 02:53:00,22.0,16.0,30.61,North,351,1.0,3.0,77,0.00,,,0.00,0.000000,,2013-12-26 07:53:00,
2013-12-26 03:02:00,22.0,16.0,30.61,North,351,1.0,3.0,77,0.00,,,0.00,0.000000,,2013-12-26 08:02:00,
2013-12-26 03:42:00,24.0,18.0,30.60,SSE,147,1.0,3.0,77,0.00,,,0.00,0.000000,,2013-12-26 08:42:00,
2013-12-26 03:53:00,24.0,18.0,30.60,SSE,147,1.0,3.0,77,0.00,,,0.00,0.000000,,2013-12-26 08:53:00,
2013-12-26 04:02:00,24.0,18.0,30.60,SSE,147,1.0,3.0,77,0.00,,,0.00,0.000000,,2013-12-26 09:02:00,
2013-12-26 04:43:00,23.0,17.0,30.60,North,10,1.0,4.0,79,0.00,,,0.00,0.000000,,2013-12-26 09:43:00,
2013-12-26 04:53:00,23.0,17.0,30.60,North,10,1.0,4.0,79,0.00,,,0.00,0.000000,,2013-12-26 09:53:00,
2013-12-26 05:03:00,23.0,17.0,30.60,North,10,1.0,4.0,79,0.00,,,0.00,0.000000,,2013-12-26 10:03:00,
2013-12-26 05:43:00,21.0,18.0,30.60,ESE,102,2.0,4.0,89,0.00,,,0.00,0.000000,,2013-12-26 10:43:00,
2013-12-26 05:53:00,21.0,18.0,30.60,ESE,102,2.0,4.0,89,0.00,,,0.00,0.000000,,2013-12-26 10:53:00,
2013-12-26 06:02:00,21.0,18.0,30.60,ESE,102,2.0,4.0,89,0.00,,,0.00,0.000000,,2013-12-26 11:02:00,
2013-12-26 06:43:00,21.0,19.0,30.61,WSW,254,1.0,3.0,90,0.00,,,0.00,0.000000,,2013-12-26 11:43:00,
2013-12-26 06:52:00,21.0,19.0,30.61,WSW,254,1.0,3.0,90,0.00,,,0.00,0.000000,,2013-12-26 11:52:00,
2013-12-26 07:02:00,21.0,19.0,30.61,WSW,254,1.0,3.0,90,0.00,,,0.00,0.000000,,2013-12-26 12:02:00,
2013-12-26 07:42:00,20.0,18.0,30.62,East,91,1.0,3.0,91,0.00,,,0.00,0.000000,,2013-12-26 12:42:00,
2013-12-26 07:53:00,20.0,18.0,30.62,East,91,1.0,3.0,91,0.00,,,0.00,0.000000,,2013-12-26 12:53:00,
2013-12-26 08:02:00,20.0,18.0,30.62,East,91,1.0,3.0,91,0.00,,,0.00,0.000000,,2013-12-26 13:02:00,
2013-12-26 08:42:00,20.0,19.0,30.63,NW,311,1.0,3.0,97,0.00,,,0.00,1.000000,,2013-12-26 13:42:00,
2013-12-26 08:53:00,20.0,19.0,30.63,NW,311,1.0,3.0,97,0.00,,,0.00,1.000000,,2013-12-26 13:53:00,
2013-12-26 09:02:00,20.0,19.0,30.63,NW,311,1.0,3.0,97,0.00,,,0.00,1.000000,,2013-12-26 14:02:00,
2013-12-26 09:42:00,30.0,22.0,30.64,East,101,1.0,2.0,71,0.00,,,0.00,100.000000,,2013-12-26 14:42:00,
2013-12-26 09:52:00,30.0,22.0,30.64,East,101,1.0,2.0,71,0.00,,,0.00,100.000000,,2013-12-26 14:52:00,
2013-12-26 10:02:00,30.0,22.0,30.64,East,101,1.0,2.0,71,0.00,,,0.00,100.000000,,2013-12-26 15:02:00,
2013-12-26 10:43:00,37.0,23.0,30.65,WNW,287,1.0,3.0,57,0.00,,,0.00,334.000000,,2013-12-26 15:43:00,
2013-12-26 10:54:00,37.0,23.0,30.65,WNW,287,1.0,3.0,57,0.00,,,0.00,334.000000,,2013-12-26 15:54:00,
2013-12-26 11:03:00,37.0,23.0,30.65,WNW,287,1.0,3.0,57,0.00,,,0.00,334.000000,,2013-12-26 16:03:00,
2013-12-26 11:42:00,44.0,22.0,30.63,West,265,4.0,11.0,42,0.00,,,0.00,502.000000,,2013-12-26 16:42:00,
2013-12-26 11:53:00,44.0,22.0,30.63,West,265,4.0,11.0,42,0.00,,,0.00,502.000000,,2013-12-26 16:53:00,
2013-12-26 12:02:00,44.0,22.0,30.63,West,265,4.0,11.0,42,0.00,,,0.00,502.000000,,2013-12-26 17:02:00,
2013-12-26 12:43:00,49.0,22.0,30.61,North,11,4.0,13.0,34,0.00,,,0.00,608.000000,,2013-12-26 17:43:00,
2013-12-26 12:52:00,49.0,22.0,30.61,North,11,4.0,13.0,34,0.00,,,0.00,608.000000,,2013-12-26 17:52:00,
2013-12-26 13:02:00,49.0,22.0,30.61,North,11,4.0,13.0,34,0.00,,,0.00,608.000000,,2013-12-26 18:02:00,
2013-12-26 13:42:00,50.0,21.0,30.58,East,91,3.0,12.0,32,0.00,,,0.00,646.000000,,2013-12-26 18:42:00,
2013-12-26 13:52:00,50.0,21.0,30.58,East,91,3.0,12.0,32,0.00,,,0.00,646.000000,,2013-12-26 18:52:00,
2013-12-26 14:02:00,50.0,21.0,30.58,East,91,3.0,12.0,32,0.00,,,0.00,646.000000,,2013-12-26 19:02:00,
2013-12-26 14:42:00,50.0,22.0,30.57,West,265,6.0,17.0,33,0.00,,,0.00,610.000000,,2013-12-26 19:42:00,
2013-12-26 14:52:00,50.0,22.0,30.57,West,265,6.0,17.0,33,0.00,,,0.00,610.000000,,2013-12-26 19:52:00,
2013-12-26 15:02:00,50.0,22.0,30.57,West,265,6.0,17.0,33,0.00,,,0.00,610.000000,,2013-12-26 20:02:00,
2013-12-26 15:42:00,49.0,22.0,30.57,WNW,298,8.0,15.0,34,0.00,,,0.00,414.000000,,2013-12-26 20:42:00,
2013-12-26 15:52:00,49.0,22.0,30.57,WNW,298,8.0,15.0,34,0.00,,,0.00,414.000000,,2013-12-26 20:52:00,
2013-12-26 16:02:00,49.0,22.0,30.57,WNW,298,8.0,15.0,34,0.00,,,0.00,414.000000,,2013-12-26 21:02:00,
2013-12-26 16:43:00,50.0,24.0,30.57,WSW,258,3.0,12.0,36,0.00,,,0.00,52.000000,,2013-12-26 21:43:00,
2013-12-26 16:53:00,50.0,24.0,30.57,WSW,258,3.0,12.0,36,0.00,,,0.00,52.000000,,2013-12-26 21:53:00,
2013-12-26 17:03:00,50.0,24.0,30.57,WSW,258,3.0,12.0,36,0.00,,,0.00,52.000000,,2013-12-26 22:03:00,
2013-12-26 17:43:00,42.0,23.0,30.58,WNW,293,1.0,7.0,46,-99.99,,,0.00,85.000000,,2013-12-26 22:43:00,
2013-12-26 17:52:00,42.0,23.0,30.58,WNW,293,1.0,7.0,46,-99.99,,,0.00,85.000000,,2013-12-26 22:52:00,
2013-12-26 18:03:00,42.0,23.0,30.58,WNW,293,1.0,7.0,46,-99.99,,,0.00,85.000000,,2013-12-26 23:03:00,
2013-12-26 18:42:00,33.0,23.0,30.60,East,95,2.0,6.0,66,0.00,,,0.00,7.000000,,2013-12-26 23:42:00,
2013-12-26 18:53:00,33.0,23.0,30.60,East,95,2.0,6.0,66,0.00,,,0.00,7.000000,,2013-12-26 23:53:00,
2013-12-26 19:02:00,33.0,23.0,30.60,East,95,2.0,6.0,66,0.00,,,0.00,7.000000,,2013-12-27 00:02:00,
2013-12-26 19:42:00,32.0,23.0,30.62,North,1,1.0,6.0,69,0.00,,,-99.99,0.000000,,2013-12-27 00:42:00,
2013-12-26 19:52:00,32.0,23.0,30.62,North,1,1.0,6.0,69,0.00,,,-99.99,0.000000,,2013-12-27 00:52:00,
2013-12-26 20:02:00,32.0,23.0,30.62,North,1,1.0,6.0,69,0.00,,,-99.99,0.000000,,2013-12-27 01:02:00,
2013-12-26 20:42:00,32.0,24.0,30.64,East,79,2.0,3.0,72,0.00,,,0.00,0.000000,,2013-12-27 01:42:00,
2013-12-26 20:52:00,32.0,24.0,30.64,East,79,2.0,3.0,72,0.00,,,0.00,0.000000,,2013-12-27 01:52:00,
2013-12-26 21:01:00,32.0,24.0,30.64,East,79,2.0,3.0,72,0.00,,,0.00,0.000000,,2013-12-27 02:01:00,
2013-12-26 21:42:00,29.0,24.0,30.66,SE,129,1.0,3.0,81,0.00,,,0.00,0.000000,,2013-12-27 02:42:00,
2013-12-26 21:52:00,29.0,24.0,30.66,SE,129,1.0,3.0,81,0.00,,,0.00,0.000000,,2013-12-27 02:52:00,
2013-12-26 22:02:00,29.0,24.0,30.66,SE,129,1.0,3.0,81,0.00,,,0.00,0.000000,,2013-12-27 03:02:00,
2013-12-26 22:43:00,28.0,25.0,30.65,South,185,1.0,4.0,87,0.00,,,0.00,0.000000,,2013-12-27 03:43:00,
2013-12-26 22:53:00,28.0,25.0,30.65,South,185,1.0,4.0,87,0.00,,,0.00,0.000000,,2013-12-27 03:53:00,
2013-12-26 23:03:00,28.0,25.0,30.65,South,185,1.0,4.0,87,0.00,,,0.00,0.000000,,2013-12-27 04:03:00,
2013-12-26 23:43:00,27.0,24.0,30.65,ENE,57,2.0,3.0,90,0.00,,,0.00,0.000000,,2013-12-27 04:43:00,
2013-12-26 23:53:00,27.0,24.0,30.65,ENE,57,2.0,3.0,90,0.00,,,0.00,0.000000,,2013-12-27 04:53:00,